createdAt,value
2023-04-28T00:01:31.383Z,2.10
2023-04-28T00:08:13.399Z,2.50
2023-04-28T00:10:40.505Z,2.00
2023-04-28T00:13:07.547Z,2.80
2023-04-28T00:15:34.746Z,3.20
2023-04-28T00:18:01.773Z,2.50
2023-04-28T00:20:28.864Z,2.40
2023-04-28T00:22:56.063Z,2.40
2023-04-28T00:25:23.088Z,2.50
2023-04-28T00:27:50.358Z,2.90
2023-04-28T00:30:17.665Z,2.30
2023-04-28T00:32:44.685Z,2.40
2023-04-28T00:35:11.789Z,2.70
2023-04-28T00:37:39.307Z,2.50
2023-04-28T00:40:07.095Z,2.70
2023-04-28T00:42:34.103Z,2.30
2023-04-28T00:45:06.014Z,2.30
2023-04-28T00:47:33.985Z,2.80
2023-04-28T00:50:01.768Z,2.20
2023-04-28T00:52:29.555Z,2.30
2023-04-28T00:54:56.953Z,2.80
2023-04-28T00:57:23.999Z,2.20
2023-04-28T00:59:51.013Z,2.50
2023-04-28T01:02:19.475Z,2.60
2023-04-28T01:04:46.633Z,2.70
2023-04-28T01:07:14.205Z,2.90
2023-04-28T01:09:41.352Z,2.60
2023-04-28T01:12:08.740Z,2.40
2023-04-28T01:14:49.405Z,2.60
2023-04-28T01:17:16.655Z,2.30
2023-04-28T01:19:43.770Z,2.40
2023-04-28T01:22:11.743Z,2.40
2023-04-28T01:24:38.800Z,2.60
2023-04-28T01:27:06.957Z,2.40
2023-04-28T01:29:33.947Z,2.40
2023-04-28T01:32:01.097Z,2.70
2023-04-28T01:34:28.066Z,2.80
2023-04-28T01:36:55.132Z,3.00
2023-04-28T01:39:22.191Z,2.60
2023-04-28T01:41:49.238Z,2.60
2023-04-28T01:44:16.370Z,3.20
2023-04-28T01:46:43.423Z,2.40
2023-04-28T01:49:10.484Z,2.70
2023-04-28T01:51:37.424Z,2.60
2023-04-28T01:54:05.104Z,2.50
2023-04-28T01:56:32.181Z,2.60
2023-04-28T01:58:59.219Z,2.70
2023-04-28T02:01:26.389Z,2.70
2023-04-28T02:03:55.466Z,2.10
2023-04-28T02:06:23.541Z,2.30
2023-04-28T02:08:50.826Z,2.90
2023-04-28T02:11:17.768Z,2.50
2023-04-28T02:13:44.788Z,2.40
2023-04-28T02:16:11.898Z,2.40
2023-04-28T02:18:38.842Z,2.50
2023-04-28T02:21:12.303Z,2.80
2023-04-28T02:23:40.007Z,2.50
2023-04-28T02:26:07.043Z,2.50
2023-04-28T02:28:34.180Z,3.50
2023-04-28T02:31:08.089Z,2.50
2023-04-28T02:33:35.347Z,2.60
2023-04-28T02:36:03.248Z,2.30
2023-04-28T02:38:30.271Z,2.10
2023-04-28T02:41:01.163Z,2.40
2023-04-28T02:43:28.651Z,2.70
2023-04-28T02:45:55.741Z,2.30
2023-04-28T02:48:23.252Z,2.40
2023-04-28T02:50:50.371Z,2.20
2023-04-28T02:53:17.357Z,2.50
2023-04-28T02:55:44.387Z,2.70
2023-04-28T02:58:11.640Z,2.40
2023-04-28T03:00:38.774Z,2.70
2023-04-28T03:03:05.924Z,2.20
2023-04-28T03:05:33.112Z,2.70
2023-04-28T03:08:00.769Z,2.60
2023-04-28T03:10:27.771Z,2.50
2023-04-28T03:12:54.696Z,2.10
2023-04-28T03:15:21.678Z,2.10
2023-04-28T03:17:48.897Z,2.60
2023-04-28T03:20:16.505Z,2.50
2023-04-28T03:22:43.450Z,2.30
2023-04-28T03:25:10.658Z,2.30
2023-04-28T03:27:44.959Z,2.50
2023-04-28T03:30:12.276Z,2.40
2023-04-28T03:32:39.340Z,2.50
2023-04-28T03:35:06.818Z,3.00
2023-04-28T03:37:33.912Z,2.20
2023-04-28T03:40:00.958Z,2.10
2023-04-28T03:42:28.492Z,2.70
2023-04-28T03:45:06.309Z,2.40
2023-04-28T03:47:33.787Z,2.40
2023-04-28T03:50:00.877Z,2.10
2023-04-28T03:52:27.885Z,2.30
2023-04-28T03:54:55.439Z,2.50
2023-04-28T03:57:22.389Z,2.30
2023-04-28T03:59:52.184Z,2.20
2023-04-28T04:02:19.284Z,2.50
2023-04-28T04:04:46.617Z,2.80
2023-04-28T04:07:13.802Z,2.60
2023-04-28T04:09:40.899Z,2.20
2023-04-28T04:12:08.267Z,2.30
2023-04-28T04:14:35.379Z,2.90
2023-04-28T04:17:02.408Z,2.10
2023-04-28T04:19:29.501Z,2.50
2023-04-28T04:21:56.868Z,2.10
2023-04-28T04:24:23.972Z,2.70
2023-04-28T04:26:50.924Z,2.20
2023-04-28T04:29:35.438Z,2.30
2023-04-28T04:32:06.845Z,2.60
2023-04-28T04:34:34.052Z,2.20
2023-04-28T04:37:01.470Z,2.40
2023-04-28T04:39:28.799Z,2.40
2023-04-28T04:41:55.871Z,2.60
2023-04-28T04:44:33.464Z,2.80
2023-04-28T04:47:00.785Z,2.50
2023-04-28T04:49:27.890Z,3.40
2023-04-28T04:51:55.211Z,2.50
2023-04-28T04:54:22.194Z,2.80
2023-04-28T04:56:49.191Z,2.30
2023-04-28T04:59:21.003Z,3.00
2023-04-28T05:02:10.127Z,2.50
2023-04-28T05:04:37.248Z,2.10
2023-04-28T05:07:04.521Z,2.30
2023-04-28T05:09:33.252Z,2.70
2023-04-28T05:12:00.400Z,2.40
2023-04-28T05:14:27.405Z,2.30
2023-04-28T05:16:55.351Z,2.50
2023-04-28T05:19:25.694Z,2.30
2023-04-28T05:21:54.836Z,2.30
2023-04-28T05:24:23.912Z,2.50
2023-04-28T05:26:52.047Z,2.50
2023-04-28T05:29:19.395Z,2.10
2023-04-28T05:31:46.422Z,2.00
2023-04-28T05:34:14.496Z,2.10
2023-04-28T05:36:41.929Z,3.20
2023-04-28T05:39:11.071Z,2.60
2023-04-28T05:41:38.934Z,2.00
2023-04-28T05:44:06.319Z,2.20
2023-04-28T05:46:33.938Z,2.30
2023-04-28T05:49:01.351Z,2.30
2023-04-28T05:51:33.809Z,2.30
2023-04-28T05:54:02.108Z,2.20
2023-04-28T05:56:29.549Z,2.60
2023-04-28T05:58:58.892Z,2.20
2023-04-28T06:01:26.431Z,2.30
2023-04-28T06:03:54.105Z,2.10
2023-04-28T06:06:21.953Z,2.30
2023-04-28T06:08:49.029Z,2.10
2023-04-28T06:11:16.202Z,3.00
2023-04-28T06:13:43.134Z,2.00
2023-04-28T06:16:10.061Z,2.00
2023-04-28T06:18:37.027Z,2.00
2023-04-28T06:21:04.251Z,2.00
2023-04-28T06:23:31.499Z,1.60
2023-04-28T06:25:58.572Z,2.00
2023-04-28T06:28:25.549Z,2.30
2023-04-28T06:30:53.522Z,1.90
2023-04-28T06:33:20.486Z,1.90
2023-04-28T06:35:47.400Z,2.50
2023-04-28T06:38:15.792Z,2.00
2023-04-28T06:40:42.797Z,2.10
2023-04-28T06:43:09.839Z,1.90
2023-04-28T06:45:44.845Z,1.90
2023-04-28T06:48:12.003Z,2.10
2023-04-28T06:50:41.785Z,1.80
2023-04-28T06:53:12.213Z,2.00
2023-04-28T06:55:39.321Z,1.90
2023-04-28T06:58:06.360Z,1.90
2023-04-28T07:00:34.558Z,1.80
2023-04-28T07:03:01.760Z,1.70
2023-04-28T07:05:29.153Z,1.90
2023-04-28T07:07:56.579Z,2.20
2023-04-28T07:10:24.013Z,2.20
2023-04-28T07:12:52.506Z,1.60
2023-04-28T07:15:19.635Z,1.60
2023-04-28T07:17:46.678Z,1.90
2023-04-28T07:20:14.920Z,1.80
2023-04-28T07:22:42.154Z,1.80
2023-04-28T07:25:09.478Z,1.60
2023-04-28T07:27:36.990Z,1.70
2023-04-28T07:30:14.858Z,1.80
2023-04-28T07:32:46.137Z,1.70
2023-04-28T07:35:13.086Z,1.50
2023-04-28T07:37:40.194Z,1.70
2023-04-28T07:40:07.814Z,1.40
2023-04-28T07:42:34.936Z,2.00
2023-04-28T07:45:01.937Z,1.60
2023-04-28T07:47:29.487Z,1.60
2023-04-28T07:49:56.765Z,1.40
2023-04-28T07:52:23.871Z,1.60
2023-04-28T07:54:50.943Z,1.10
2023-04-28T07:57:17.987Z,1.20
2023-04-28T07:59:44.989Z,1.00
2023-04-28T08:02:13.598Z,1.30
2023-04-28T08:04:41.056Z,1.40
2023-04-28T08:07:09.271Z,1.40
2023-04-28T08:09:36.425Z,1.20
2023-04-28T08:12:03.596Z,1.30
2023-04-28T08:14:30.869Z,1.20
2023-04-28T08:16:57.944Z,1.30
2023-04-28T08:19:25.296Z,1.30
2023-04-28T08:21:52.318Z,1.30
2023-04-28T08:24:19.363Z,1.50
2023-04-28T08:26:46.369Z,1.80
2023-04-28T08:29:13.356Z,1.30
2023-04-28T08:31:40.391Z,1.40
2023-04-28T08:34:07.522Z,1.50
2023-04-28T08:36:35.268Z,1.40
2023-04-28T08:39:04.266Z,1.30
2023-04-28T08:41:32.791Z,1.10
2023-04-28T08:43:59.747Z,1.70
2023-04-28T08:46:27.717Z,1.40
2023-04-28T08:48:59.355Z,1.40
2023-04-28T08:51:31.248Z,1.30
2023-04-28T08:54:19.053Z,1.30
2023-04-28T08:56:46.188Z,1.30
2023-04-28T08:59:13.411Z,1.20
2023-04-28T09:01:40.406Z,1.20
2023-04-28T09:04:07.734Z,1.70
2023-04-28T09:06:35.648Z,1.30
2023-04-28T09:09:22.109Z,1.20
2023-04-28T09:11:59.853Z,1.20
2023-04-28T09:14:30.924Z,1.10
2023-04-28T09:16:57.943Z,1.30
2023-04-28T09:19:25.470Z,1.30
2023-04-28T09:21:56.828Z,1.40
2023-04-28T09:24:34.042Z,1.40
2023-04-28T09:27:02.548Z,1.50
2023-04-28T09:29:29.699Z,1.30
2023-04-28T09:32:19.001Z,1.60
2023-04-28T09:34:50.400Z,1.90
2023-04-28T09:37:18.265Z,1.50
2023-04-28T09:39:45.918Z,1.40
2023-04-28T09:42:35.370Z,1.30
2023-04-28T09:45:03.525Z,1.30
2023-04-28T09:47:32.822Z,1.10
2023-04-28T09:50:01.235Z,1.40
2023-04-28T09:52:28.421Z,1.30
2023-04-28T09:54:56.660Z,0.90
2023-04-28T09:57:23.720Z,0.90
2023-04-28T09:59:51.696Z,1.60
2023-04-28T10:02:41.998Z,1.50
2023-04-28T10:05:11.535Z,1.10
2023-04-28T10:10:07.865Z,1.30
2023-04-28T10:12:35.334Z,1.00
2023-04-28T10:15:02.286Z,1.40
2023-04-28T10:17:29.883Z,1.50
2023-04-28T10:19:57.619Z,1.30
2023-04-28T10:22:46.927Z,1.70
2023-04-28T10:25:23.192Z,1.20
2023-04-28T10:27:50.371Z,1.40
2023-04-28T10:30:28.085Z,1.40
2023-04-28T10:33:22.978Z,1.40
2023-04-28T10:35:50.003Z,1.40
2023-04-28T10:38:17.948Z,1.30
2023-04-28T10:40:52.092Z,1.50
2023-04-28T10:43:28.796Z,1.40
2023-04-28T10:46:02.231Z,1.50
2023-04-28T10:48:29.832Z,1.30
2023-04-28T10:51:06.937Z,1.20
2023-04-28T10:53:46.704Z,1.10
2023-04-28T10:56:18.781Z,1.30
2023-04-28T10:58:46.653Z,1.30
2023-04-28T11:01:24.914Z,1.10
2023-04-28T11:04:11.044Z,1.30
2023-04-28T11:06:40.286Z,1.40
2023-04-28T11:09:16.025Z,2.40
2023-04-28T11:11:56.339Z,1.30
2023-04-28T11:14:23.456Z,1.30
2023-04-28T11:16:50.991Z,1.50
2023-04-28T11:19:22.022Z,1.50
2023-04-28T11:21:49.270Z,1.70
2023-04-28T11:24:16.456Z,1.50
2023-04-28T11:26:44.076Z,1.40
2023-04-28T11:29:11.839Z,1.50
2023-04-28T11:31:38.813Z,1.30
2023-04-28T11:34:06.669Z,0.80
2023-04-28T11:36:38.030Z,1.20
2023-04-28T11:39:07.778Z,1.70
2023-04-28T11:41:35.890Z,1.50
2023-04-28T11:44:16.180Z,1.20
2023-04-28T11:46:56.488Z,1.40
2023-04-28T11:49:28.482Z,1.80
2023-04-28T11:52:00.467Z,1.00
2023-04-28T11:54:28.828Z,1.20
2023-04-28T11:56:57.683Z,2.20
2023-04-28T11:59:28.951Z,1.00
2023-04-28T12:01:59.455Z,1.80
2023-04-28T12:04:38.015Z,1.10
2023-04-28T12:07:15.224Z,1.30
2023-04-28T12:09:46.852Z,1.30
2023-04-28T12:12:17.173Z,1.20
2023-04-28T12:15:01.711Z,1.30
2023-04-28T12:17:30.275Z,1.60
2023-04-28T12:19:57.966Z,1.10
2023-04-28T12:22:25.097Z,1.10
2023-04-28T12:25:06.982Z,1.10
2023-04-28T12:27:34.853Z,1.50
2023-04-28T12:30:02.683Z,1.30
2023-04-28T12:32:43.641Z,1.40
2023-04-28T12:35:10.598Z,1.50
2023-04-28T12:37:38.982Z,1.30
2023-04-28T12:40:06.800Z,1.10
2023-04-28T12:42:33.762Z,1.40
2023-04-28T12:45:00.767Z,1.30
2023-04-28T12:47:28.089Z,1.20
2023-04-28T12:49:55.066Z,1.30
2023-04-28T12:52:22.733Z,1.60
2023-04-28T12:54:50.229Z,1.00
2023-04-28T12:57:17.726Z,1.20
2023-04-28T12:59:45.680Z,1.50
2023-04-28T13:02:14.007Z,1.20
2023-04-28T13:04:43.235Z,1.40
2023-04-28T13:07:10.316Z,1.30
2023-04-28T13:09:38.550Z,1.40
2023-04-28T13:12:05.780Z,1.50
2023-04-28T13:14:33.312Z,1.50
2023-04-28T13:17:00.619Z,1.20
2023-04-28T13:19:28.007Z,1.50
2023-04-28T13:21:55.081Z,1.50
2023-04-28T13:24:22.189Z,1.30
2023-04-28T13:26:49.178Z,1.40
2023-04-28T13:29:16.266Z,1.20
2023-04-28T13:31:43.464Z,1.20
2023-04-28T13:34:16.086Z,1.60
2023-04-28T13:36:44.025Z,1.70
2023-04-28T13:39:16.832Z,1.10
2023-04-28T13:41:43.748Z,1.30
2023-04-28T13:44:10.947Z,1.10
2023-04-28T13:46:37.847Z,1.30
2023-04-28T13:49:05.090Z,1.20
2023-04-28T13:51:35.443Z,1.30
2023-04-28T13:54:05.599Z,1.50
2023-04-28T13:56:32.849Z,1.50
2023-04-28T13:58:59.935Z,1.40
2023-04-28T14:01:27.152Z,1.40
2023-04-28T14:03:54.392Z,1.20
2023-04-28T14:06:21.945Z,1.30
2023-04-28T14:08:48.906Z,1.40
2023-04-28T14:11:15.888Z,1.10
2023-04-28T14:13:43.568Z,1.60
2023-04-28T14:16:10.529Z,1.40
2023-04-28T14:18:37.656Z,1.10
2023-04-28T14:21:08.186Z,1.10
2023-04-28T14:23:38.772Z,1.40
2023-04-28T14:26:05.787Z,1.40
2023-04-28T14:28:32.762Z,1.30
2023-04-28T14:31:03.941Z,1.30
2023-04-28T14:33:30.892Z,1.40
2023-04-28T14:35:57.911Z,1.30
2023-04-28T14:38:24.875Z,1.70
2023-04-28T14:40:51.829Z,1.60
2023-04-28T14:43:18.808Z,2.20
2023-04-28T14:45:46.376Z,1.50
2023-04-28T14:48:14.452Z,1.70
2023-04-28T14:50:43.168Z,1.40
2023-04-28T14:53:10.144Z,1.90
2023-04-28T14:55:37.106Z,1.40
2023-04-28T14:58:04.616Z,1.30
2023-04-28T15:00:31.632Z,1.70
2023-04-28T15:02:58.707Z,1.20
2023-04-28T15:05:25.817Z,1.80
2023-04-28T15:07:52.899Z,1.60
2023-04-28T15:10:19.859Z,1.90
2023-04-28T15:12:48.508Z,1.50
2023-04-28T15:15:15.582Z,1.50
2023-04-28T15:17:42.566Z,1.30
2023-04-28T15:20:09.754Z,1.50
2023-04-28T15:22:37.617Z,1.30
2023-04-28T15:25:04.898Z,1.80
2023-04-28T15:27:32.346Z,1.40
2023-04-28T15:29:59.327Z,1.30
2023-04-28T15:32:27.295Z,1.50
2023-04-28T15:34:55.446Z,1.70
2023-04-28T15:37:37.839Z,1.20
2023-04-28T15:40:09.406Z,1.70
2023-04-28T15:42:37.713Z,1.80
2023-04-28T15:45:10.501Z,1.40
2023-04-28T15:47:39.180Z,1.70
2023-04-28T15:50:08.584Z,1.40
2023-04-28T15:52:35.936Z,1.60
2023-04-28T15:55:03.045Z,1.50
2023-04-28T15:57:29.956Z,2.10
2023-04-28T15:59:57.025Z,1.70
2023-04-28T16:02:24.393Z,1.50
2023-04-28T16:04:51.888Z,1.40
2023-04-28T16:07:19.011Z,1.50
2023-04-28T16:09:46.054Z,1.30
2023-04-28T16:12:13.097Z,1.20
2023-04-28T16:14:40.094Z,1.30
2023-04-28T16:17:07.721Z,1.30
2023-04-28T16:19:34.891Z,1.70
2023-04-28T16:22:01.869Z,1.80
2023-04-28T16:24:28.923Z,1.40
2023-04-28T16:26:56.147Z,2.00
2023-04-28T16:29:23.795Z,1.50
2023-04-28T16:31:50.878Z,1.30
2023-04-28T16:34:19.432Z,1.90
2023-04-28T16:36:46.692Z,2.20
2023-04-28T16:39:13.623Z,1.70
2023-04-28T16:41:40.728Z,2.00
2023-04-28T16:44:08.574Z,1.50
2023-04-28T16:46:35.709Z,1.50
2023-04-28T16:49:02.622Z,1.70
2023-04-28T16:51:29.590Z,1.40
2023-04-28T16:53:56.467Z,1.80
2023-04-28T16:56:23.432Z,1.70
2023-04-28T16:58:50.426Z,1.80
2023-04-28T17:01:17.462Z,1.60
2023-04-28T17:03:45.100Z,1.50
2023-04-28T17:06:12.383Z,1.90
2023-04-28T17:08:42.398Z,1.80
2023-04-28T17:11:09.463Z,2.00
2023-04-28T17:13:36.449Z,1.70
2023-04-28T17:16:04.181Z,2.10
2023-04-28T17:18:31.435Z,1.80
2023-04-28T17:20:58.420Z,1.70
2023-04-28T17:23:27.881Z,2.10
2023-04-28T17:25:54.866Z,2.00
2023-04-28T17:28:25.401Z,2.20
2023-04-28T17:30:55.981Z,1.90
2023-04-28T17:33:23.017Z,2.50
2023-04-28T17:35:50.274Z,2.10
2023-04-28T17:38:17.263Z,1.70
2023-04-28T17:40:48.781Z,1.70
2023-04-28T17:43:20.506Z,2.20
2023-04-28T17:48:14.705Z,2.00
2023-04-28T17:50:42.070Z,2.00
2023-04-28T17:53:09.061Z,1.70
2023-04-28T17:55:36.151Z,1.70
2023-04-28T17:58:03.228Z,1.70
2023-04-28T18:00:30.366Z,2.00
2023-04-28T18:02:58.544Z,1.70
2023-04-28T18:05:26.531Z,3.00
2023-04-28T18:07:53.478Z,1.70
2023-04-28T18:10:20.404Z,1.70
2023-04-28T18:12:47.616Z,1.70
2023-04-28T18:15:14.809Z,2.00
2023-04-28T18:17:41.788Z,1.80
2023-04-28T18:20:09.612Z,1.40
2023-04-28T18:22:36.742Z,1.60
2023-04-28T18:25:04.803Z,1.60
2023-04-28T18:27:31.843Z,1.80
2023-04-28T18:29:58.850Z,2.10
2023-04-28T18:32:26.017Z,2.10
2023-04-28T18:34:53.133Z,2.30
2023-04-28T18:37:20.101Z,1.90
2023-04-28T18:39:49.424Z,2.10
2023-04-28T18:42:16.441Z,2.00
2023-04-28T18:44:43.593Z,2.10
2023-04-28T18:47:10.579Z,2.60
2023-04-28T18:49:38.277Z,2.40
2023-04-28T18:52:05.443Z,2.20
2023-04-28T18:54:33.001Z,1.50
2023-04-28T18:57:00.053Z,2.20
2023-04-28T18:59:27.126Z,1.90
2023-04-28T19:01:54.142Z,1.70
2023-04-28T19:04:23.894Z,1.80
2023-04-28T19:06:51.124Z,2.10
2023-04-28T19:09:18.078Z,1.80
2023-04-28T19:11:45.092Z,1.90
2023-04-28T19:14:12.159Z,1.60
2023-04-28T19:16:41.221Z,2.00
2023-04-28T19:19:09.648Z,1.90
2023-04-28T19:21:43.365Z,1.60
2023-04-28T19:24:10.458Z,2.00
2023-04-28T19:26:37.417Z,1.70
2023-04-28T19:29:04.470Z,1.60
2023-04-28T19:31:31.553Z,1.60
2023-04-28T19:33:58.557Z,2.50
2023-04-28T19:36:25.488Z,1.70
2023-04-28T19:38:53.205Z,1.50
2023-04-28T19:41:20.961Z,1.80
2023-04-28T19:43:48.048Z,1.70
2023-04-28T19:46:16.533Z,1.60
2023-04-28T19:48:46.770Z,1.90
2023-04-28T19:51:14.569Z,1.60
2023-04-28T19:53:41.799Z,1.90
2023-04-28T19:56:10.301Z,1.40
2023-04-28T19:58:37.843Z,2.00
2023-04-28T20:01:07.954Z,1.90
2023-04-28T20:03:36.134Z,2.30
2023-04-28T20:06:03.965Z,2.40
2023-04-28T20:08:30.959Z,2.60
2023-04-28T20:10:58.283Z,2.60
2023-04-28T20:13:27.253Z,2.60
2023-04-28T20:15:55.457Z,2.90
2023-04-28T20:18:22.429Z,2.10
2023-04-28T20:20:52.713Z,2.90
2023-04-28T20:23:19.732Z,3.20
2023-04-28T20:25:47.181Z,2.80
2023-04-28T20:28:14.470Z,3.80
2023-04-28T20:30:44.290Z,3.30
2023-04-28T20:33:11.235Z,3.30
2023-04-28T20:35:38.151Z,3.10
2023-04-28T20:38:05.136Z,3.40
2023-04-28T20:40:32.094Z,3.90
2023-04-28T20:43:01.706Z,4.10
2023-04-28T20:45:28.775Z,3.70
2023-04-28T20:47:56.585Z,3.40
2023-04-28T20:50:24.351Z,4.50
2023-04-28T20:52:51.253Z,3.50
2023-04-28T20:55:18.195Z,3.80
2023-04-28T20:57:45.162Z,3.90
2023-04-28T21:00:13.133Z,4.00
2023-04-28T21:02:40.360Z,4.10
2023-04-28T21:05:07.788Z,3.70
2023-04-28T21:07:34.873Z,3.80
2023-04-28T21:10:01.919Z,4.10
2023-04-28T21:12:28.941Z,3.70
2023-04-28T21:14:56.016Z,3.10
2023-04-28T21:17:23.467Z,4.00
2023-04-28T21:19:50.861Z,4.00
2023-04-28T21:22:18.127Z,3.70
2023-04-28T21:24:45.579Z,3.50
2023-04-28T21:27:12.697Z,3.80
2023-04-28T21:29:40.118Z,4.20
2023-04-28T21:32:07.222Z,3.40
2023-04-28T21:34:34.308Z,4.00
2023-04-28T21:37:02.246Z,3.70
2023-04-28T21:39:29.210Z,3.40
2023-04-28T21:41:56.203Z,3.30
2023-04-28T21:44:23.323Z,3.30
2023-04-28T21:46:50.419Z,3.40
2023-04-28T21:49:17.403Z,3.60
2023-04-28T21:51:46.037Z,2.90
2023-04-28T21:54:12.985Z,3.30
2023-04-28T21:56:39.942Z,3.30
2023-04-28T21:59:06.863Z,2.90
2023-04-28T22:01:33.978Z,2.90
2023-04-28T22:04:03.779Z,2.90
2023-04-28T22:06:31.424Z,2.80
2023-04-28T22:08:58.353Z,2.60
2023-04-28T22:11:25.528Z,2.80
2023-04-28T22:13:52.592Z,2.70
2023-04-28T22:16:19.745Z,2.60
2023-04-28T22:18:46.911Z,2.90
2023-04-28T22:21:14.631Z,2.40
2023-04-28T22:23:41.576Z,2.80
2023-04-28T22:26:08.490Z,3.20
2023-04-28T22:28:35.516Z,3.10
2023-04-28T22:31:02.726Z,3.30
2023-04-28T22:33:29.716Z,3.30
2023-04-28T22:35:56.845Z,3.20
2023-04-28T22:38:23.812Z,2.90
2023-04-28T22:40:50.742Z,2.80
2023-04-28T22:43:17.751Z,3.20
2023-04-28T22:45:45.829Z,2.90
2023-04-28T22:48:13.964Z,2.50
2023-04-28T22:50:41.173Z,2.50
2023-04-28T22:53:08.288Z,3.20
2023-04-28T22:55:35.318Z,2.60
2023-04-28T22:58:02.351Z,3.00
2023-04-28T23:00:29.391Z,3.10
2023-04-28T23:02:56.484Z,3.40
2023-04-28T23:05:23.595Z,3.40
2023-04-28T23:07:50.728Z,3.30
2023-04-28T23:10:19.048Z,3.20
2023-04-28T23:12:46.150Z,3.00
2023-04-28T23:15:13.103Z,3.20
2023-04-28T23:17:40.103Z,3.20
2023-04-28T23:20:07.599Z,3.20
2023-04-28T23:22:34.594Z,3.10
2023-04-28T23:25:01.600Z,2.30
2023-04-28T23:27:28.586Z,2.80
2023-04-28T23:29:55.583Z,2.50
2023-04-28T23:32:22.959Z,2.40
2023-04-28T23:34:50.088Z,2.80
2023-04-28T23:37:17.083Z,2.70
2023-04-28T23:39:44.160Z,2.80
2023-04-28T23:42:11.477Z,2.40
2023-04-28T23:44:38.441Z,2.30
2023-04-28T23:47:05.384Z,1.90
2023-04-28T23:49:32.329Z,2.30
2023-04-28T23:51:59.519Z,1.90
2023-04-28T23:54:26.723Z,2.30
2023-04-28T23:56:53.737Z,3.00
2023-04-28T23:59:20.739Z,2.20
